Terminal Aerodrome Forecast
Issued by NWS

Current Version | Previous Version | Text Only | Print | Product List | Glossary On
Versions: 1 2 3 4 5 6 7 8 9 10 11 12 13 14 15 16 17
000
FTUS41 KBOX 221138
TAFACK
TAF
KACK 221138Z 2212/2312 14004KT P6SM -RA OVC025
     FM221500 16006KT P6SM OVC025
     FM221800 13007KT P6SM VCSH OVC010
     FM230000 13010KT 5SM BR VCSH OVC020
     FM230500 16013G20KT P6SM OVC020
     FM231100 17018G25KT P6SM OVC008=

USA.gov is the U.S. government's official web portal to all federal, state and local government web resources and services.